M I D A S
Marine Information and Data Acquisition System
Tripno 2297 of the Zeeleeuw from 2012-04-26 08:26:08 to 2012-04-26 14:07:33
Back to CruiseResearch ActivitiesStationsMapUnderway DataData graphs

EquipmentUnitsComment
TimeDGPSUTC
LatitudeDGPSDM.mWGS84
LongitudeDGPSDM.mWGS84
HeadingGyrodeg 
SOGDGPSknotsSpeed over ground
COGDGPSdegCourse over ground
DepthEcho soundermeters200 kHz
Missing or incorrect values are displayed as -999
Navigation data collected by the RV Zeeleeuw from 2012-04-26 07:44:46 to 2012-04-26 14:19:11
                                                                                    Next 1000 lines
Time Latitude Longitude Heading SOG COG Depth
2012-04-26 07:44:56 51°13.642 2°56.017 126.4 0.1 351 -999
2012-04-26 07:45:00 51°13.642 2°56.017 126.4 -999 333 -999
2012-04-26 07:45:06 51°13.642 2°56.017 126.3 0.1 16 -999
2012-04-26 07:45:11 51°13.642 2°56.017 126.3 0.1 9 -999
2012-04-26 07:45:16 51°13.642 2°56.017 126.4 0.1 10 -999
2012-04-26 07:45:21 51°13.641 2°56.017 126.5 0.1 9 -999
2012-04-26 07:45:27 51°13.641 2°56.017 126.5 0.1 359 -999
2012-04-26 07:45:32 51°13.64 2°56.017 126.5 0.1 8 -999
2012-04-26 07:45:37 51°13.64 2°56.017 126.5 0.1 22 -999
2012-04-26 07:45:41 51°13.64 2°56.017 126.5 0.1 9 -999
2012-04-26 07:45:46 51°13.64 2°56.017 126.5 0.1 3 -999
2012-04-26 07:45:52 51°13.639 2°56.017 126.5 0.1 347 -999
2012-04-26 07:45:57 51°13.639 2°56.017 126.6 0.1 343 -999
2012-04-26 07:46:01 51°13.64 2°56.017 126.6 0.1 9 -999
2012-04-26 07:46:06 51°13.64 2°56.017 126.6 0.1 3 -999
2012-04-26 07:46:12 51°13.64 2°56.017 126.5 0.1 348 -999
2012-04-26 07:46:16 51°13.64 2°56.017 126.4 -999 321 -999
2012-04-26 07:46:22 51°13.64 2°56.017 126.4 0.1 356 -999
2012-04-26 07:46:26 51°13.64 2°56.017 126.3 0.1 7 -999
2012-04-26 07:46:31 51°13.64 2°56.017 126.3 0.1 8 -999
2012-04-26 07:46:36 51°13.64 2°56.017 126.3 0.2 10 -999
2012-04-26 07:46:41 51°13.639 2°56.017 126.3 -999 255 -999
2012-04-26 07:46:46 51°13.639 2°56.017 126.4 -999 248 -999
2012-04-26 07:46:51 51°13.638 2°56.017 126.5 0.1 197 -999
2012-04-26 07:46:56 51°13.638 2°56.017 126.5 -999 242 -999
2012-04-26 07:47:02 51°13.639 2°56.017 126.5 -999 16 -999
2012-04-26 07:47:07 51°13.638 2°56.017 126.5 -999 183 -999
2012-04-26 07:47:11 51°13.638 2°56.017 126.5 0.1 222 -999
2012-04-26 07:47:17 51°13.639 2°56.017 126.4 0.1 24 -999
2012-04-26 07:47:22 51°13.639 2°56.017 126.4 0.1 11 -999
2012-04-26 07:47:27 51°13.638 2°56.017 126.4 -999 183 -999
2012-04-26 07:47:32 51°13.638 2°56.017 126.4 0.1 188 -999
2012-04-26 07:47:36 51°13.638 2°56.017 126.4 0.1 24 -999
2012-04-26 07:47:42 51°13.638 2°56.017 126.4 0.1 20 -999
2012-04-26 07:47:47 51°13.638 2°56.017 126.4 0.1 183 -999
2012-04-26 07:47:52 51°13.638 2°56.017 126.4 -999 223 -999
2012-04-26 07:47:56 51°13.637 2°56.017 126.5 -999 291 -999
2012-04-26 07:48:01 51°13.637 2°56.017 126.5 -999 349 -999
2012-04-26 07:48:07 51°13.638 2°56.017 126.4 0.1 17 -999
2012-04-26 07:48:12 51°13.638 2°56.017 126.3 0.1 23 -999
2012-04-26 07:48:16 51°13.638 2°56.017 126.3 0.1 16 -999
2012-04-26 07:48:21 51°13.638 2°56.017 126.2 0.2 11 -999
2012-04-26 07:48:27 51°13.638 2°56.017 126.2 0.1 11 -999
2012-04-26 07:48:32 51°13.638 2°56.017 126.2 0.2 11 -999
2012-04-26 07:48:36 51°13.638 2°56.018 126.3 0.1 9 -999
2012-04-26 07:48:42 51°13.638 2°56.018 126.4 -999 14 -999
2012-04-26 07:48:47 51°13.638 2°56.017 126.4 0.1 194 -999
2012-04-26 07:48:52 51°13.638 2°56.018 126.4 -999 65 -999
2012-04-26 07:48:56 51°13.638 2°56.018 126.4 0.1 35 -999
2012-04-26 07:49:02 51°13.638 2°56.018 126.4 0.1 195 -999
2012-04-26 07:49:07 51°13.638 2°56.018 126.4 0.1 30 -999
2012-04-26 07:49:11 51°13.638 2°56.018 126.4 0.2 22 -999
2012-04-26 07:49:16 51°13.638 2°56.018 126.4 0.1 20 -999
2012-04-26 07:49:22 51°13.638 2°56.018 126.4 -999 353 -999
2012-04-26 07:49:26 51°13.638 2°56.018 126.4 0.2 14 -999
2012-04-26 07:49:31 51°13.638 2°56.018 126.4 -999 94 -999
2012-04-26 07:49:36 51°13.638 2°56.018 126.4 -999 351 -999
2012-04-26 07:49:42 51°13.638 2°56.018 126.4 0.1 17 -999
2012-04-26 07:49:46 51°13.638 2°56.018 126.4 -999 336 -999
2012-04-26 07:49:51 51°13.638 2°56.018 126.5 -999 264 -999
2012-04-26 07:49:56 51°13.637 2°56.018 126.6 0.2 196 -999
2012-04-26 07:50:01 51°13.638 2°56.018 126.6 -999 216 -999
2012-04-26 07:50:07 51°13.638 2°56.018 126.7 0.2 20 -999
2012-04-26 07:50:12 51°13.638 2°56.018 126.7 0.1 5 -999
2012-04-26 07:50:16 51°13.638 2°56.018 126.6 -999 174 -999
2012-04-26 07:50:22 51°13.638 2°56.018 126.4 0.1 20 -999
2012-04-26 07:50:26 51°13.638 2°56.018 126.4 0.1 3 -999
2012-04-26 07:50:31 51°13.638 2°56.018 126.4 -999 56 -999
2012-04-26 07:50:36 51°13.638 2°56.018 126.4 0.1 188 -999
2012-04-26 07:50:42 51°13.638 2°56.018 126.4 0.1 209 -999
2012-04-26 07:50:46 51°13.638 2°56.018 126.4 0.1 178 -999
2012-04-26 07:50:51 51°13.637 2°56.018 126.5 0.1 191 -999
2012-04-26 07:50:57 51°13.637 2°56.018 126.5 0.1 206 -999
2012-04-26 07:51:01 51°13.637 2°56.018 126.5 0.1 204 -999
2012-04-26 07:51:06 51°13.637 2°56.018 126.4 0.1 210 -999
2012-04-26 07:51:11 51°13.637 2°56.018 126.4 0.1 186 -999
2012-04-26 07:51:16 51°13.637 2°56.018 126.4 0.1 191 -999
2012-04-26 07:51:21 51°13.637 2°56.018 126.4 0.1 209 -999
2012-04-26 07:51:26 51°13.638 2°56.018 126.4 0.1 358 -999
2012-04-26 07:51:31 51°13.638 2°56.018 126.4 0.2 25 -999
2012-04-26 07:51:36 51°13.638 2°56.018 126.4 0.1 28 -999
2012-04-26 07:51:41 51°13.638 2°56.018 126.4 -999 204 -999
2012-04-26 07:51:46 51°13.638 2°56.018 126.5 -999 243 -999
2012-04-26 07:51:51 51°13.638 2°56.018 126.5 0.1 1 -999
2012-04-26 07:51:56 51°13.638 2°56.018 126.5 -999 227 -999
2012-04-26 07:52:01 51°13.638 2°56.018 126.5 -999 193 -999
2012-04-26 07:52:06 51°13.638 2°56.018 126.5 -999 17 -999
2012-04-26 07:52:11 51°13.638 2°56.018 126.5 0.1 167 -999
2012-04-26 07:52:16 51°13.638 2°56.018 126.5 -999 13 -999
2012-04-26 07:52:22 51°13.638 2°56.018 126.4 0.1 346 -999
2012-04-26 07:52:26 51°13.638 2°56.018 126.3 0.3 18 -999
2012-04-26 07:52:31 51°13.638 2°56.018 126.2 0.2 14 -999
2012-04-26 07:52:36 51°13.638 2°56.018 126.2 0.1 12 -999
2012-04-26 07:52:41 51°13.637 2°56.018 126.4 0.1 194 -999
2012-04-26 07:52:46 51°13.637 2°56.018 126.4 -999 320 -999
2012-04-26 07:52:51 51°13.638 2°56.019 126.5 0.3 19 -999
2012-04-26 07:52:56 51°13.637 2°56.018 126.4 0.1 35 -999
2012-04-26 07:53:01 51°13.637 2°56.018 126.3 -999 247 -999
2012-04-26 07:53:06 51°13.637 2°56.018 126.2 0.1 9 -999
2012-04-26 07:53:11 51°13.637 2°56.019 126.2 0.1 14 -999
2012-04-26 07:53:16 51°13.637 2°56.018 126.2 0.1 211 -999
2012-04-26 07:53:21 51°13.637 2°56.018 126.2 0.1 212 -999
2012-04-26 07:53:26 51°13.637 2°56.019 126.2 -999 324 -999
2012-04-26 07:53:31 51°13.637 2°56.019 126.2 0.1 22 -999
2012-04-26 07:53:36 51°13.638 2°56.019 126.2 0.2 5 -999
2012-04-26 07:53:41 51°13.639 2°56.019 126.2 -999 256 -999
2012-04-26 07:53:47 51°13.639 2°56.019 126.2 -999 206 -999
2012-04-26 07:53:52 51°13.639 2°56.02 126.2 0.1 31 -999
2012-04-26 07:53:56 51°13.639 2°56.02 126.2 0.1 179 -999
2012-04-26 07:54:01 51°13.638 2°56.02 126.2 0.1 188 -999
2012-04-26 07:54:06 51°13.638 2°56.019 126.2 0.1 190 -999
2012-04-26 07:54:12 51°13.638 2°56.02 126.2 0.1 185 -999
2012-04-26 07:54:17 51°13.639 2°56.02 126.3 -999 308 -999
2012-04-26 07:54:22 51°13.639 2°56.02 126.3 0.1 16 -999
2012-04-26 07:54:27 51°13.639 2°56.02 126.3 -999 126 -999
2012-04-26 07:54:32 51°13.639 2°56.02 126.2 -999 204 -999
2012-04-26 07:54:37 51°13.639 2°56.019 126.2 0.1 263 -999
2012-04-26 07:54:41 51°13.638 2°56.019 126.2 0.1 343 -999
2012-04-26 07:54:46 51°13.637 2°56.019 126.2 0.1 338 -999
2012-04-26 07:54:51 51°13.638 2°56.019 126.2 0.1 345 -999
2012-04-26 07:54:57 51°13.637 2°56.019 126.2 0.1 359 -999
2012-04-26 07:55:02 51°13.637 2°56.019 126.2 -999 8 -999
2012-04-26 07:55:07 51°13.637 2°56.019 126.2 -999 348 -999
2012-04-26 07:55:12 51°13.637 2°56.019 126.2 -999 268 -999
2012-04-26 07:55:17 51°13.637 2°56.019 126.2 -999 130 -999
2012-04-26 07:55:21 51°13.637 2°56.019 126.2 -999 229 -999
2012-04-26 07:55:26 51°13.637 2°56.019 126.3 -999 239 -999
2012-04-26 07:55:31 51°13.637 2°56.019 126.3 -999 224 -999
2012-04-26 07:55:37 51°13.636 2°56.019 126.3 -999 202 -999
2012-04-26 07:55:42 51°13.636 2°56.019 126.3 -999 31 -999
2012-04-26 07:55:47 51°13.636 2°56.018 126.2 0.1 196 -999
2012-04-26 07:55:52 51°13.636 2°56.018 126 -999 208 -999
2012-04-26 07:55:57 51°13.636 2°56.018 126 -999 22 -999
2012-04-26 07:56:02 51°13.636 2°56.018 126 -999 253 -999
2012-04-26 07:56:06 51°13.636 2°56.018 126 -999 153 -999
2012-04-26 07:56:12 51°13.636 2°56.018 126.2 -999 198 -999
2012-04-26 07:56:16 51°13.636 2°56.019 126.2 -999 335 -999
2012-04-26 07:56:21 51°13.636 2°56.019 126.2 -999 19 -999
2012-04-26 07:56:26 51°13.636 2°56.018 126.2 -999 231 -999
2012-04-26 07:56:31 51°13.635 2°56.018 126.2 0.1 196 -999
2012-04-26 07:56:36 51°13.635 2°56.018 126.2 -999 183 -999
2012-04-26 07:56:42 51°13.635 2°56.018 126.2 0.1 214 -999
2012-04-26 07:56:47 51°13.636 2°56.018 126.2 -999 54 -999
2012-04-26 07:56:52 51°13.636 2°56.019 126.2 0.1 351 -999
2012-04-26 07:56:57 51°13.636 2°56.019 126.2 -999 77 -999
2012-04-26 07:57:02 51°13.637 2°56.019 126.2 -999 225 -999
2012-04-26 07:57:07 51°13.637 2°56.019 126.1 -999 211 -999
2012-04-26 07:57:12 51°13.637 2°56.019 125.9 -999 191 -999
2012-04-26 07:57:16 51°13.637 2°56.019 125.9 -999 44 -999
2012-04-26 07:57:21 51°13.637 2°56.019 125.9 -999 312 -999
2012-04-26 07:57:26 51°13.637 2°56.019 125.9 -999 296 -999
2012-04-26 07:57:32 51°13.637 2°56.019 125.9 -999 217 -999
2012-04-26 07:57:36 51°13.637 2°56.019 125.9 -999 214 -999
2012-04-26 07:57:41 51°13.636 2°56.019 125.9 -999 168 -999
2012-04-26 07:57:47 51°13.636 2°56.019 125.9 -999 185 -999
2012-04-26 07:57:51 51°13.636 2°56.019 125.9 0.1 171 -999
2012-04-26 07:57:56 51°13.636 2°56.019 125.9 -999 156 -999
2012-04-26 07:58:01 51°13.636 2°56.018 125.9 -999 226 -999
2012-04-26 07:58:07 51°13.635 2°56.018 125.9 -999 325 -999
2012-04-26 07:58:11 51°13.635 2°56.018 125.9 -999 153 -999
2012-04-26 07:58:16 51°13.635 2°56.018 126 -999 192 -999
2012-04-26 07:58:21 51°13.635 2°56.018 126 -999 213 -999
2012-04-26 07:58:26 51°13.635 2°56.018 126 0.1 6 -999
2012-04-26 07:58:32 51°13.635 2°56.018 126 0.1 192 -999
2012-04-26 07:58:36 51°13.635 2°56.018 126 0.1 182 -999
2012-04-26 07:58:41 51°13.635 2°56.018 126 -999 217 -999
2012-04-26 07:58:46 51°13.635 2°56.018 126 0.1 216 -999
2012-04-26 07:58:51 51°13.635 2°56.018 126 0.1 188 -999
2012-04-26 07:58:56 51°13.635 2°56.018 126 -999 204 -999
2012-04-26 07:59:01 51°13.635 2°56.018 126 -999 204 -999
2012-04-26 07:59:07 51°13.635 2°56.018 126.1 -999 185 -999
2012-04-26 07:59:12 51°13.636 2°56.018 126.1 -999 23 -999
2012-04-26 07:59:17 51°13.636 2°56.018 126.1 -999 68 -999
2012-04-26 07:59:22 51°13.636 2°56.018 126.1 -999 193 -999
2012-04-26 07:59:26 51°13.636 2°56.018 126.1 -999 14 -999
2012-04-26 07:59:31 51°13.636 2°56.018 126.1 -999 221 -999
2012-04-26 07:59:37 51°13.636 2°56.018 126.1 -999 201 -999
2012-04-26 07:59:41 51°13.636 2°56.018 126 -999 345 -999
2012-04-26 07:59:47 51°13.636 2°56.018 126 -999 4 -999
2012-04-26 07:59:52 51°13.637 2°56.018 126 -999 3 -999
2012-04-26 07:59:57 51°13.637 2°56.018 126 -999 227 -999
2012-04-26 08:00:01 51°13.637 2°56.018 126 -999 194 -999
2012-04-26 08:00:07 51°13.637 2°56.018 126 -999 145 -999
2012-04-26 08:00:12 51°13.637 2°56.018 126.1 -999 192 -999
2012-04-26 08:00:17 51°13.637 2°56.018 126.2 -999 194 -999
2012-04-26 08:00:21 51°13.637 2°56.018 126.2 -999 93 -999
2012-04-26 08:00:27 51°13.637 2°56.018 126.2 -999 169 -999
2012-04-26 08:00:32 51°13.637 2°56.018 126.2 -999 297 -999
2012-04-26 08:00:37 51°13.637 2°56.018 126.2 -999 345 -999
2012-04-26 08:00:42 51°13.637 2°56.018 126.1 -999 359 -999
2012-04-26 08:00:47 51°13.637 2°56.018 126 -999 277 -999
2012-04-26 08:00:51 51°13.637 2°56.018 126 -999 339 -999
2012-04-26 08:00:57 51°13.637 2°56.018 125.9 -999 186 -999
2012-04-26 08:01:02 51°13.637 2°56.018 125.9 -999 176 -999
2012-04-26 08:01:06 51°13.637 2°56.018 126 -999 150 -999
2012-04-26 08:01:12 51°13.637 2°56.018 126 -999 226 -999
2012-04-26 08:01:17 51°13.637 2°56.018 126.1 -999 217 -999
2012-04-26 08:01:22 51°13.637 2°56.018 126.1 -999 171 -999
2012-04-26 08:01:26 51°13.637 2°56.018 126.1 -999 177 -999
2012-04-26 08:01:32 51°13.637 2°56.018 126.1 -999 188 -999
2012-04-26 08:01:37 51°13.638 2°56.018 126.1 -999 162 -999
2012-04-26 08:01:42 51°13.638 2°56.018 126 -999 170 -999
2012-04-26 08:01:46 51°13.638 2°56.018 125.8 -999 142 -999
2012-04-26 08:01:52 51°13.638 2°56.018 125.8 -999 164 -999
2012-04-26 08:01:57 51°13.638 2°56.019 125.8 -999 190 -999
2012-04-26 08:02:02 51°13.638 2°56.019 125.8 -999 140 -999
2012-04-26 08:02:07 51°13.638 2°56.019 125.8 -999 155 -999
2012-04-26 08:02:12 51°13.639 2°56.019 125.8 -999 187 -999
2012-04-26 08:02:17 51°13.639 2°56.019 125.8 0.1 193 -999
2012-04-26 08:02:22 51°13.639 2°56.019 125.8 -999 57 -999
2012-04-26 08:02:27 51°13.639 2°56.019 125.8 -999 337 -999
2012-04-26 08:02:32 51°13.639 2°56.019 125.9 -999 348 -999
2012-04-26 08:02:37 51°13.639 2°56.019 125.9 0.1 340 -999
2012-04-26 08:02:42 51°13.639 2°56.019 125.9 -999 271 -999
2012-04-26 08:02:46 51°13.639 2°56.019 126 -999 155 -999
2012-04-26 08:02:52 51°13.64 2°56.019 126 -999 302 -999
2012-04-26 08:02:56 51°13.64 2°56.019 126.1 -999 88 -999
2012-04-26 08:03:01 51°13.64 2°56.019 126 0.1 143 -999
2012-04-26 08:03:07 51°13.64 2°56.019 125.9 -999 143 -999
2012-04-26 08:03:11 51°13.64 2°56.019 125.9 -999 120 -999
2012-04-26 08:03:16 51°13.64 2°56.019 125.9 -999 244 -999
2012-04-26 08:03:21 51°13.64 2°56.019 125.9 -999 169 -999
2012-04-26 08:03:26 51°13.64 2°56.019 125.9 -999 142 -999
2012-04-26 08:03:31 51°13.639 2°56.019 125.9 -999 42 -999
2012-04-26 08:03:36 51°13.639 2°56.019 125.9 -999 344 -999
2012-04-26 08:03:41 51°13.639 2°56.019 125.9 -999 353 -999
2012-04-26 08:03:46 51°13.639 2°56.019 125.9 -999 328 -999
2012-04-26 08:03:52 51°13.639 2°56.019 125.9 -999 352 -999
2012-04-26 08:03:56 51°13.639 2°56.019 125.9 -999 1 -999
2012-04-26 08:04:01 51°13.639 2°56.019 125.9 -999 209 -999
2012-04-26 08:04:07 51°13.639 2°56.019 125.8 0.1 120 -999
2012-04-26 08:04:12 51°13.639 2°56.019 125.8 0.1 349 -999
2012-04-26 08:04:16 51°13.639 2°56.019 125.7 -999 16 -999
2012-04-26 08:04:21 51°13.639 2°56.019 125.7 -999 159 -999
2012-04-26 08:04:27 51°13.639 2°56.019 125.7 -999 16 -999
2012-04-26 08:04:32 51°13.639 2°56.019 125.9 -999 41 -999
2012-04-26 08:04:36 51°13.638 2°56.019 125.9 -999 28 -999
2012-04-26 08:04:41 51°13.638 2°56.019 125.9 -999 1 -999
2012-04-26 08:04:47 51°13.638 2°56.019 125.9 -999 346 -999
2012-04-26 08:04:51 51°13.638 2°56.018 125.9 -999 289 -999
2012-04-26 08:04:56 51°13.638 2°56.018 125.9 -999 197 -999
2012-04-26 08:05:01 51°13.637 2°56.018 125.8 0.1 22 -999
2012-04-26 08:05:06 51°13.636 2°56.017 125.8 0.1 7 -999
2012-04-26 08:05:11 51°13.636 2°56.017 125.8 -999 38 -999
2012-04-26 08:05:16 51°13.636 2°56.017 125.9 -999 263 -999
2012-04-26 08:05:21 51°13.636 2°56.017 125.9 -999 193 -999
2012-04-26 08:05:26 51°13.635 2°56.017 125.9 -999 133 -999
2012-04-26 08:05:32 51°13.635 2°56.017 125.9 -999 1 -999
2012-04-26 08:05:37 51°13.635 2°56.017 125.9 0.1 16 -999
2012-04-26 08:05:41 51°13.635 2°56.017 125.9 0.1 3 -999
2012-04-26 08:05:47 51°13.635 2°56.017 125.9 0.1 10 -999
2012-04-26 08:05:51 51°13.635 2°56.017 125.9 0.1 8 -999
2012-04-26 08:05:56 51°13.635 2°56.017 125.9 0.1 191 -999
2012-04-26 08:06:01 51°13.635 2°56.017 125.9 0.1 201 -999
2012-04-26 08:06:06 51°13.635 2°56.017 125.9 0.1 204 -999
2012-04-26 08:06:11 51°13.635 2°56.017 125.9 -999 198 -999
2012-04-26 08:06:17 51°13.635 2°56.017 125.9 -999 157 -999
2012-04-26 08:06:22 51°13.635 2°56.017 125.9 -999 355 -999
2012-04-26 08:06:27 51°13.635 2°56.017 125.9 -999 205 -999
2012-04-26 08:06:32 51°13.635 2°56.017 125.9 -999 198 -999
2012-04-26 08:06:37 51°13.635 2°56.017 125.9 -999 35 -999
2012-04-26 08:06:42 51°13.635 2°56.017 125.9 -999 5 -999
2012-04-26 08:06:47 51°13.635 2°56.017 125.9 -999 354 -999
2012-04-26 08:06:52 51°13.635 2°56.017 125.8 -999 349 -999
2012-04-26 08:06:57 51°13.636 2°56.017 125.7 -999 17 -999
2012-04-26 08:07:02 51°13.635 2°56.017 125.7 -999 207 -999
2012-04-26 08:07:07 51°13.635 2°56.017 125.8 0.1 213 -999
2012-04-26 08:07:12 51°13.635 2°56.017 126.1 -999 352 -999
2012-04-26 08:07:17 51°13.635 2°56.017 126.1 -999 14 -999
2012-04-26 08:07:22 51°13.636 2°56.017 126.1 -999 14 -999
2012-04-26 08:07:26 51°13.636 2°56.017 126 -999 98 -999
2012-04-26 08:07:32 51°13.635 2°56.017 125.8 0.1 188 -999
2012-04-26 08:07:37 51°13.636 2°56.017 125.7 -999 10 -999
2012-04-26 08:07:41 51°13.636 2°56.017 125.6 -999 193 -999
2012-04-26 08:07:46 51°13.636 2°56.017 125.7 -999 337 -999
2012-04-26 08:07:51 51°13.636 2°56.017 125.7 -999 322 -999
2012-04-26 08:07:56 51°13.636 2°56.017 125.7 0.1 198 -999
2012-04-26 08:08:01 51°13.635 2°56.017 125.8 0.1 203 -999
2012-04-26 08:08:07 51°13.635 2°56.016 125.9 0.1 196 -999
2012-04-26 08:08:12 51°13.635 2°56.017 125.9 -999 201 -999
2012-04-26 08:08:17 51°13.636 2°56.017 125.9 -999 13 -999
2012-04-26 08:08:22 51°13.636 2°56.017 125.9 -999 174 -999
2012-04-26 08:08:27 51°13.635 2°56.017 125.9 -999 32 -999
2012-04-26 08:08:32 51°13.635 2°56.017 125.8 -999 176 -999
2012-04-26 08:08:36 51°13.635 2°56.017 125.8 -999 224 -999
2012-04-26 08:08:41 51°13.636 2°56.017 125.9 -999 208 -999
2012-04-26 08:08:47 51°13.636 2°56.017 126.3 -999 55 -999
2012-04-26 08:08:52 51°13.636 2°56.017 126.4 0.1 209 -999
2012-04-26 08:08:56 51°13.636 2°56.017 126.4 -999 238 -999
2012-04-26 08:09:01 51°13.635 2°56.017 126.3 -999 207 -999
2012-04-26 08:09:07 51°13.636 2°56.017 126 -999 2 -999
2012-04-26 08:09:11 51°13.636 2°56.017 125.9 0.1 17 -999
2012-04-26 08:09:16 51°13.636 2°56.017 125.8 -999 224 -999
2012-04-26 08:09:21 51°13.636 2°56.017 125.8 0.1 194 -999
2012-04-26 08:09:27 51°13.636 2°56.017 125.8 -999 278 -999
2012-04-26 08:09:31 51°13.636 2°56.017 125.8 -999 218 -999
2012-04-26 08:09:37 51°13.636 2°56.017 125.8 -999 16 -999
2012-04-26 08:09:42 51°13.636 2°56.017 126 -999 21 -999
2012-04-26 08:09:47 51°13.636 2°56.017 126.1 -999 256 -999
2012-04-26 08:09:51 51°13.636 2°56.017 126.1 -999 200 -999
2012-04-26 08:09:57 51°13.636 2°56.017 126.1 0.1 186 -999
2012-04-26 08:10:02 51°13.636 2°56.017 126.1 -999 141 -999
2012-04-26 08:10:06 51°13.636 2°56.018 126.1 0.2 28 -999
2012-04-26 08:10:12 51°13.636 2°56.018 126.1 0.1 13 -999
2012-04-26 08:10:17 51°13.636 2°56.018 126.1 -999 218 -999
2012-04-26 08:10:21 51°13.636 2°56.018 126.1 -999 207 -999
2012-04-26 08:10:26 51°13.636 2°56.018 126.1 -999 336 -999
2012-04-26 08:10:31 51°13.636 2°56.017 126.1 -999 243 -999
2012-04-26 08:10:36 51°13.636 2°56.018 126.1 0.1 46 -999
2012-04-26 08:10:41 51°13.636 2°56.018 126.1 -999 57 -999
2012-04-26 08:10:46 51°13.636 2°56.017 126.1 0.2 208 -999
2012-04-26 08:10:51 51°13.636 2°56.017 126.1 0.2 223 -999
2012-04-26 08:10:57 51°13.636 2°56.017 126.1 0.1 223 -999
2012-04-26 08:11:02 51°13.636 2°56.018 126.1 0.1 34 -999
2012-04-26 08:11:07 51°13.637 2°56.018 126.1 0.3 43 -999
2012-04-26 08:11:12 51°13.636 2°56.018 126.1 0.2 38 -999
2012-04-26 08:11:16 51°13.636 2°56.018 126 0.1 79 -999
2012-04-26 08:11:22 51°13.636 2°56.018 126 -999 254 -999
2012-04-26 08:11:27 51°13.636 2°56.018 125.9 0.1 355 -999
2012-04-26 08:11:32 51°13.636 2°56.018 125.9 0.1 30 -999
2012-04-26 08:11:36 51°13.636 2°56.018 125.9 -999 358 -999
2012-04-26 08:11:42 51°13.636 2°56.018 125.9 -999 164 -999
2012-04-26 08:11:47 51°13.635 2°56.018 125.9 0.1 176 -999
2012-04-26 08:11:51 51°13.636 2°56.018 126 0.1 177 -999
2012-04-26 08:11:56 51°13.636 2°56.018 126 0.1 210 -999
2012-04-26 08:12:02 51°13.636 2°56.018 126 -999 295 -999
2012-04-26 08:12:07 51°13.636 2°56.018 126 -999 221 -999
2012-04-26 08:12:12 51°13.636 2°56.018 126 0.1 226 -999
2012-04-26 08:12:17 51°13.636 2°56.018 125.9 -999 176 -999
2012-04-26 08:12:22 51°13.636 2°56.018 125.9 -999 181 -999
2012-04-26 08:12:27 51°13.636 2°56.018 125.9 -999 343 -999
2012-04-26 08:12:32 51°13.636 2°56.018 125.9 -999 266 -999
2012-04-26 08:12:37 51°13.636 2°56.018 125.8 -999 -999 -999
2012-04-26 08:12:42 51°13.635 2°56.018 125.7 0.1 177 -999
2012-04-26 08:12:47 51°13.636 2°56.017 125.7 -999 338 -999
2012-04-26 08:12:52 51°13.636 2°56.017 125.7 -999 358 -999
2012-04-26 08:12:57 51°13.636 2°56.017 125.7 -999 322 -999
2012-04-26 08:13:02 51°13.635 2°56.017 125.8 0.1 177 -999
2012-04-26 08:13:07 51°13.635 2°56.017 125.8 -999 188 -999
2012-04-26 08:13:12 51°13.635 2°56.017 125.8 -999 255 -999
2012-04-26 08:13:16 51°13.635 2°56.017 125.8 -999 188 -999
2012-04-26 08:13:22 51°13.635 2°56.017 125.8 0.1 331 -999
2012-04-26 08:13:27 51°13.635 2°56.017 125.8 -999 290 -999
2012-04-26 08:13:31 51°13.635 2°56.017 125.8 0.1 177 -999
2012-04-26 08:13:36 51°13.635 2°56.017 125.8 0.1 175 -999
2012-04-26 08:13:41 51°13.636 2°56.017 125.8 -999 5 -999
2012-04-26 08:13:46 51°13.636 2°56.017 125.8 -999 207 -999
2012-04-26 08:13:51 51°13.636 2°56.017 125.8 0.1 343 -999
2012-04-26 08:13:56 51°13.636 2°56.017 125.8 -999 26 -999
2012-04-26 08:14:01 51°13.636 2°56.017 125.8 -999 133 -999
2012-04-26 08:14:06 51°13.636 2°56.017 125.8 -999 189 -999
2012-04-26 08:14:11 51°13.636 2°56.017 125.8 -999 334 -999
2012-04-26 08:14:17 51°13.636 2°56.016 125.8 0.1 340 -999
2012-04-26 08:14:22 51°13.636 2°56.016 125.8 0.1 340 -999
2012-04-26 08:14:27 51°13.636 2°56.016 125.9 -999 270 -999
2012-04-26 08:14:32 51°13.636 2°56.016 126 -999 258 -999
2012-04-26 08:14:37 51°13.636 2°56.016 126.1 -999 48 -999
2012-04-26 08:14:42 51°13.636 2°56.016 126.2 -999 153 -999
2012-04-26 08:14:47 51°13.636 2°56.016 126.3 0.1 183 -999
2012-04-26 08:14:52 51°13.636 2°56.016 126.3 -999 186 -999
2012-04-26 08:14:57 51°13.636 2°56.016 126.2 -999 178 -999
2012-04-26 08:15:02 51°13.636 2°56.016 126.1 -999 191 -999
2012-04-26 08:15:06 51°13.636 2°56.016 126.1 -999 211 -999
2012-04-26 08:15:12 51°13.636 2°56.016 126.2 0.1 172 -999
2012-04-26 08:15:15 51°13.636 2°56.016 126.2 0.1 169 -999
2012-04-26 08:15:22 51°13.636 2°56.016 126.3 0.1 341 -999
2012-04-26 08:15:27 51°13.636 2°56.016 126.4 -999 190 -999
2012-04-26 08:15:32 51°13.636 2°56.016 126.4 -999 198 -999
2012-04-26 08:15:37 51°13.636 2°56.016 126.3 -999 179 -999
2012-04-26 08:15:42 51°13.636 2°56.016 126.1 -999 198 -999
2012-04-26 08:15:47 51°13.636 2°56.016 126 -999 4 -999
2012-04-26 08:15:52 51°13.636 2°56.016 126 -999 148 -999
2012-04-26 08:15:56 51°13.636 2°56.017 126.2 -999 353 -999
2012-04-26 08:16:02 51°13.636 2°56.017 126.3 0.1 185 -999
2012-04-26 08:16:07 51°13.636 2°56.017 126.4 0.1 175 -999
2012-04-26 08:16:12 51°13.636 2°56.017 126.4 -999 175 -999
2012-04-26 08:16:17 51°13.636 2°56.017 126.2 0.1 182 -999
2012-04-26 08:16:22 51°13.636 2°56.017 126.1 0.1 180 -999
2012-04-26 08:16:26 51°13.636 2°56.017 126.1 0.1 198 -999
2012-04-26 08:16:32 51°13.636 2°56.017 126.1 -999 245 -999
2012-04-26 08:16:37 51°13.636 2°56.017 126.2 -999 177 -999
2012-04-26 08:16:42 51°13.636 2°56.017 126.2 -999 16 -999
2012-04-26 08:16:47 51°13.636 2°56.017 126.2 -999 152 -999
2012-04-26 08:16:52 51°13.636 2°56.017 126.2 -999 156 -999
2012-04-26 08:16:57 51°13.636 2°56.017 126.2 -999 342 -999
2012-04-26 08:17:01 51°13.636 2°56.017 126.2 0.1 344 -999
2012-04-26 08:17:07 51°13.636 2°56.017 126 -999 297 -999
2012-04-26 08:17:12 51°13.636 2°56.017 125.9 -999 299 -999
2012-04-26 08:17:17 51°13.637 2°56.017 125.9 -999 344 -999
2012-04-26 08:17:21 51°13.636 2°56.017 125.9 -999 294 -999
2012-04-26 08:17:27 51°13.636 2°56.017 125.8 -999 348 -999
2012-04-26 08:17:32 51°13.636 2°56.017 125.8 0.1 169 -999
2012-04-26 08:17:37 51°13.636 2°56.016 125.8 0.1 186 -999
2012-04-26 08:17:42 51°13.637 2°56.016 125.9 0.1 196 -999
2012-04-26 08:17:47 51°13.637 2°56.016 125.9 -999 304 -999
2012-04-26 08:17:52 51°13.637 2°56.016 125.9 -999 346 -999
2012-04-26 08:17:57 51°13.637 2°56.016 125.9 -999 347 -999
2012-04-26 08:18:02 51°13.637 2°56.016 125.9 -999 344 -999
2012-04-26 08:18:06 51°13.637 2°56.016 125.9 -999 99 -999
2012-04-26 08:18:12 51°13.637 2°56.016 125.9 -999 337 -999
2012-04-26 08:18:17 51°13.637 2°56.016 125.9 -999 196 -999
2012-04-26 08:18:21 51°13.636 2°56.016 125.9 0.1 178 -999
2012-04-26 08:18:27 51°13.637 2°56.016 125.9 -999 172 -999
2012-04-26 08:18:32 51°13.637 2°56.016 126 -999 137 -999
2012-04-26 08:18:36 51°13.637 2°56.016 126.2 0.1 359 -999
2012-04-26 08:18:41 51°13.637 2°56.016 126.2 0.1 351 -999
2012-04-26 08:18:46 51°13.637 2°56.016 126 -999 2 -999
2012-04-26 08:18:52 51°13.637 2°56.016 125.8 -999 171 -999
2012-04-26 08:18:57 51°13.637 2°56.016 125.7 0.1 330 -999
2012-04-26 08:19:01 51°13.637 2°56.016 125.7 -999 11 -999
2012-04-26 08:19:06 51°13.637 2°56.016 125.7 -999 -999 -999
2012-04-26 08:19:11 51°13.637 2°56.016 125.7 0.1 189 -999
2012-04-26 08:19:16 51°13.636 2°56.016 125.7 0.1 172 -999
2012-04-26 08:19:21 51°13.637 2°56.016 125.8 -999 181 -999
2012-04-26 08:19:25 51°13.637 2°56.017 125.8 -999 347 -999
2012-04-26 08:19:31 51°13.637 2°56.017 125.8 0.1 352 -999
2012-04-26 08:19:37 51°13.637 2°56.017 125.8 0.1 351 -999
2012-04-26 08:19:42 51°13.637 2°56.017 125.8 -999 170 -999
2012-04-26 08:19:46 51°13.637 2°56.017 125.8 -999 347 -999
2012-04-26 08:19:52 51°13.637 2°56.017 125.8 -999 246 -999
2012-04-26 08:19:56 51°13.637 2°56.017 125.7 -999 151 -999
2012-04-26 08:20:01 51°13.637 2°56.017 125.7 -999 278 -999
2012-04-26 08:20:06 51°13.636 2°56.017 125.8 -999 180 -999
2012-04-26 08:20:12 51°13.636 2°56.017 125.8 -999 197 -999
2012-04-26 08:20:17 51°13.636 2°56.017 125.8 -999 150 -999
2012-04-26 08:20:21 51°13.636 2°56.017 125.8 -999 145 -999
2012-04-26 08:20:26 51°13.636 2°56.017 125.8 -999 332 -999
2012-04-26 08:20:31 51°13.636 2°56.017 125.8 -999 329 -999
2012-04-26 08:20:36 51°13.636 2°56.017 125.8 0.1 171 -999
2012-04-26 08:20:41 51°13.636 2°56.017 125.8 0.1 166 -999
2012-04-26 08:20:46 51°13.636 2°56.017 125.8 -999 159 -999
2012-04-26 08:20:51 51°13.636 2°56.017 125.8 -999 194 -999
2012-04-26 08:20:56 51°13.637 2°56.017 125.8 0.1 359 -999
2012-04-26 08:21:01 51°13.636 2°56.017 126.3 -999 256 -999
2012-04-26 08:21:06 51°13.636 2°56.017 126.7 0.1 171 -999
2012-04-26 08:21:12 51°13.636 2°56.017 126.9 0.1 152 -999
2012-04-26 08:21:16 51°13.636 2°56.017 127 -999 237 -999
2012-04-26 08:21:21 51°13.636 2°56.017 127 -999 342 -999
2012-04-26 08:21:27 51°13.636 2°56.018 126.7 -999 27 -999
2012-04-26 08:21:31 51°13.636 2°56.018 126.6 -999 176 -999
2012-04-26 08:21:37 51°13.636 2°56.018 126.5 -999 197 -999
2012-04-26 08:21:41 51°13.636 2°56.018 126.5 0.1 337 -999
2012-04-26 08:21:46 51°13.636 2°56.018 126.6 -999 245 -999
2012-04-26 08:21:51 51°13.636 2°56.018 126.8 -999 248 -999
2012-04-26 08:21:57 51°13.636 2°56.018 127 0.1 179 -999
2012-04-26 08:22:01 51°13.636 2°56.018 127.1 0.1 158 -999
2012-04-26 08:22:06 51°13.636 2°56.018 127.1 -999 143 -999
2012-04-26 08:22:11 51°13.636 2°56.018 127.1 -999 187 -999
2012-04-26 08:22:17 51°13.636 2°56.018 127.1 0.1 262 -999
2012-04-26 08:22:21 51°13.636 2°56.018 127.1 0.1 177 -999
2012-04-26 08:22:26 51°13.636 2°56.018 127.1 -999 173 -999
2012-04-26 08:22:32 51°13.636 2°56.018 127.1 0.1 345 -999
2012-04-26 08:22:36 51°13.636 2°56.018 127.2 -999 346 -999
2012-04-26 08:22:41 51°13.636 2°56.018 127.3 0.1 185 -999
2012-04-26 08:22:47 51°13.636 2°56.018 127.3 -999 269 -999
2012-04-26 08:22:51 51°13.636 2°56.018 127.4 0.1 223 -999
2012-04-26 08:22:56 51°13.636 2°56.018 127.4 -999 221 -999
2012-04-26 08:23:02 51°13.636 2°56.018 127.4 -999 324 -999
2012-04-26 08:23:07 51°13.636 2°56.018 127.4 -999 352 -999
2012-04-26 08:23:12 51°13.635 2°56.018 127.3 -999 121 -999
2012-04-26 08:23:17 51°13.635 2°56.018 127.1 -999 94 -999
2012-04-26 08:23:22 51°13.635 2°56.018 126.9 0.1 196 -999
2012-04-26 08:23:27 51°13.635 2°56.018 126.8 0.1 201 -999
2012-04-26 08:23:32 51°13.635 2°56.018 126.8 -999 232 -999
2012-04-26 08:23:37 51°13.635 2°56.018 127 -999 235 -999
2012-04-26 08:23:42 51°13.635 2°56.018 127.1 -999 154 -999
2012-04-26 08:23:47 51°13.635 2°56.019 127.2 -999 299 -999
2012-04-26 08:23:51 51°13.634 2°56.019 127.2 0.1 351 -999
2012-04-26 08:23:57 51°13.632 2°56.021 127.3 -999 348 -999
2012-04-26 08:24:02 51°13.631 2°56.021 127.2 -999 206 -999
2012-04-26 08:24:07 51°13.63 2°56.022 127.1 -999 223 -999
2012-04-26 08:24:11 51°13.63 2°56.023 126.9 0.1 185 -999
2012-04-26 08:24:16 51°13.629 2°56.023 126.9 0.1 184 -999
2012-04-26 08:24:22 51°13.629 2°56.022 127 -999 47 -999
2012-04-26 08:24:27 51°13.63 2°56.022 127 0.1 359 -999
2012-04-26 08:24:31 51°13.63 2°56.022 127.1 -999 43 -999
2012-04-26 08:24:36 51°13.63 2°56.022 127.1 -999 129 -999
2012-04-26 08:24:41 51°13.631 2°56.022 127.1 -999 199 -999
2012-04-26 08:24:46 51°13.631 2°56.022 127.1 -999 196 -999
2012-04-26 08:24:51 51°13.631 2°56.021 127.1 -999 266 -999
2012-04-26 08:24:55 51°13.631 2°56.021 127.2 -999 205 -999
2012-04-26 08:25:01 51°13.631 2°56.021 127.3 -999 252 -999
2012-04-26 08:25:06 51°13.631 2°56.021 127.5 -999 86 -999
2012-04-26 08:25:11 51°13.632 2°56.021 127.6 -999 80 -999
2012-04-26 08:25:16 51°13.632 2°56.021 127.7 -999 177 -999
2012-04-26 08:25:21 51°13.632 2°56.021 127.7 0.1 23 -999
2012-04-26 08:25:26 51°13.632 2°56.021 127.4 0.1 353 -999
2012-04-26 08:25:31 51°13.632 2°56.021 127.1 -999 182 -999
2012-04-26 08:25:36 51°13.632 2°56.021 126.9 -999 183 -999
2012-04-26 08:25:42 51°13.632 2°56.021 126.8 0.1 202 -999
2012-04-26 08:25:47 51°13.633 2°56.021 126.9 0.1 208 -999
2012-04-26 08:25:52 51°13.633 2°56.021 127.1 -999 354 -999
2012-04-26 08:25:56 51°13.633 2°56.021 127.2 -999 14 -999
2012-04-26 08:26:02 51°13.633 2°56.021 127.2 -999 332 -999
2012-04-26 08:26:07 51°13.633 2°56.021 127.1 0.1 350 -999
2012-04-26 08:26:12 51°13.633 2°56.021 126.9 -999 67 -999
2012-04-26 08:26:16 51°13.634 2°56.021 126.9 0.1 315 -999
2012-04-26 08:26:22 51°13.634 2°56.021 126.9 0.1 273 -999
2012-04-26 08:26:27 51°13.634 2°56.02 127.1 0.1 193 -999
2012-04-26 08:26:32 51°13.634 2°56.02 127.2 0.1 10 -999
2012-04-26 08:26:36 51°13.634 2°56.02 127.4 -999 327 -999
2012-04-26 08:26:42 51°13.634 2°56.02 127.5 -999 307 -999
2012-04-26 08:26:47 51°13.634 2°56.02 127.6 -999 325 -999
2012-04-26 08:26:52 51°13.634 2°56.02 127.6 -999 346 -999
2012-04-26 08:26:56 51°13.634 2°56.02 127.6 -999 314 -999
2012-04-26 08:27:02 51°13.634 2°56.02 127.6 -999 243 -999
2012-04-26 08:27:07 51°13.635 2°56.02 127.5 -999 -999 -999
2012-04-26 08:27:12 51°13.635 2°56.02 127.5 -999 178 -999
2012-04-26 08:27:16 51°13.635 2°56.02 127.5 -999 335 -999
2012-04-26 08:27:21 51°13.635 2°56.02 127.5 -999 336 -999
2012-04-26 08:27:27 51°13.635 2°56.02 127.6 0.1 337 -999
2012-04-26 08:27:32 51°13.635 2°56.02 127.7 -999 183 -999
2012-04-26 08:27:36 51°13.635 2°56.02 127.7 0.1 169 -999
2012-04-26 08:27:41 51°13.635 2°56.02 127.7 -999 201 -999
2012-04-26 08:27:46 51°13.635 2°56.02 127.5 0.1 28 -999
2012-04-26 08:27:52 51°13.635 2°56.02 127.3 0.1 122 -999
2012-04-26 08:27:56 51°13.635 2°56.02 127 0.1 177 -999
2012-04-26 08:28:02 51°13.635 2°56.02 126.4 0.1 196 -999
2012-04-26 08:28:07 51°13.635 2°56.02 125.8 0.1 182 -999
2012-04-26 08:28:11 51°13.635 2°56.02 125.2 -999 196 -999
2012-04-26 08:28:16 51°13.635 2°56.02 124.6 0.1 179 -999
2012-04-26 08:28:22 51°13.635 2°56.02 123.9 0.1 173 -999
2012-04-26 08:28:27 51°13.635 2°56.02 123.2 0.1 180 -999
2012-04-26 08:28:31 51°13.635 2°56.02 122.5 0.1 184 -999
2012-04-26 08:28:36 51°13.634 2°56.02 122 0.1 168 -999
2012-04-26 08:28:41 51°13.635 2°56.02 121.4 -999 278 -999
2012-04-26 08:28:46 51°13.635 2°56.02 120.7 -999 281 -999
2012-04-26 08:28:51 51°13.635 2°56.02 120.2 0.1 231 -999
2012-04-26 08:28:57 51°13.634 2°56.02 119.5 0.1 195 -999
2012-04-26 08:29:01 51°13.634 2°56.02 118.9 -999 218 7.1
2012-04-26 08:29:06 51°13.634 2°56.02 118.5 0.1 204 -999
2012-04-26 08:29:11 51°13.634 2°56.02 117.8 0.1 186 -999
2012-04-26 08:29:16 51°13.633 2°56.019 117 0.1 177 -999
2012-04-26 08:29:21 51°13.633 2°56.019 116.3 0.1 221 -999
2012-04-26 08:29:26 51°13.633 2°56.019 115.8 0.1 352 -999
2012-04-26 08:29:31 51°13.633 2°56.019 115.2 -999 205 -999
2012-04-26 08:29:37 51°13.632 2°56.019 114.8 0.1 184 -999
2012-04-26 08:29:41 51°13.632 2°56.019 114.4 0.1 179 -999
2012-04-26 08:29:46 51°13.632 2°56.019 114 0.1 161 -999
2012-04-26 08:29:51 51°13.632 2°56.019 113.6 0.1 181 -999
2012-04-26 08:29:56 51°13.632 2°56.019 113.2 0.1 196 -999
2012-04-26 08:30:01 51°13.632 2°56.019 112.8 0.1 186 -999
2012-04-26 08:30:06 51°13.632 2°56.019 112.6 0.1 163 -999
2012-04-26 08:30:11 51°13.632 2°56.019 112.4 0.1 303 -999
2012-04-26 08:30:16 51°13.633 2°56.019 112 0.1 209 -999
2012-04-26 08:30:21 51°13.632 2°56.019 111.6 0.1 199 -999
2012-04-26 08:30:26 51°13.632 2°56.019 111.1 -999 189 -999
2012-04-26 08:30:31 51°13.632 2°56.019 110.4 0.1 200 -999
2012-04-26 08:30:36 51°13.632 2°56.018 109.8 0.1 206 -999
2012-04-26 08:30:41 51°13.633 2°56.018 109.6 0.1 240 -999
2012-04-26 08:30:46 51°13.632 2°56.018 108.9 -999 127 -999
2012-04-26 08:30:51 51°13.632 2°56.018 108.2 0.2 313 -999
2012-04-26 08:30:56 51°13.633 2°56.017 107.8 0.6 297 -999
2012-04-26 08:31:01 51°13.634 2°56.014 107.7 1.1 292 -999
2012-04-26 08:31:06 51°13.635 2°56.011 107.5 1.6 294 -999
2012-04-26 08:31:11 51°13.636 2°56.007 107.5 2.2 293 7
2012-04-26 08:31:16 51°13.638 2°56.002 107.5 2.5 295 -999
2012-04-26 08:31:21 51°13.639 2°55.997 107.4 2.6 294 -999
2012-04-26 08:31:26 51°13.641 2°55.991 107 2.9 294 -999
2012-04-26 08:31:31 51°13.642 2°55.984 106.4 3.1 292 -999
2012-04-26 08:31:37 51°13.644 2°55.977 105.8 3.2 292 -999
2012-04-26 08:31:42 51°13.646 2°55.971 104.8 3 291 -999
2012-04-26 08:31:46 51°13.647 2°55.966 103.2 2.8 287 -999
2012-04-26 08:31:52 51°13.648 2°55.96 101.3 2.4 291 -999
2012-04-26 08:31:57 51°13.649 2°55.957 99.5 1.8 289 -999
2012-04-26 08:32:02 51°13.65 2°55.955 98.1 1 300 -999
2012-04-26 08:32:06 51°13.65 2°55.955 98.1 0.5 321 -999
2012-04-26 08:32:12 51°13.651 2°55.955 99.9 0.5 342 -999
2012-04-26 08:32:17 51°13.652 2°55.953 101.6 0.6 311 -999
2012-04-26 08:32:22 51°13.653 2°55.951 102.3 1.1 307 -999
2012-04-26 08:32:26 51°13.653 2°55.949 102.1 1.4 298 -999
2012-04-26 08:32:32 51°13.655 2°55.944 101.7 1.9 294 -999
2012-04-26 08:32:37 51°13.656 2°55.939 100.9 2.2 287 -999
2012-04-26 08:32:42 51°13.657 2°55.935 99.5 2.2 288 -999
2012-04-26 08:32:46 51°13.657 2°55.931 97.8 2 281 -999
2012-04-26 08:32:52 51°13.658 2°55.928 95.4 1.3 282 -999
2012-04-26 08:32:56 51°13.658 2°55.927 94.4 0.6 297 -999
2012-04-26 08:33:02 51°13.658 2°55.927 96.2 0.1 339 -999
2012-04-26 08:33:07 51°13.659 2°55.928 99.2 0.4 61 -999
2012-04-26 08:33:11 51°13.659 2°55.929 102.4 0.4 73 -999
2012-04-26 08:33:17 51°13.659 2°55.929 105.3 0.3 52 -999
2012-04-26 08:33:22 51°13.659 2°55.929 106.5 0.2 355 -999
2012-04-26 08:33:27 51°13.66 2°55.928 107.9 0.7 316 -999
2012-04-26 08:33:31 51°13.661 2°55.926 109.2 1.2 299 -999
2012-04-26 08:33:37 51°13.662 2°55.922 110.7 1.7 300 -999
2012-04-26 08:33:42 51°13.664 2°55.917 111.7 2.1 294 -999
2012-04-26 08:33:47 51°13.665 2°55.912 112.6 2.5 296 -999
2012-04-26 08:33:51 51°13.667 2°55.907 113 3 294 4.8
2012-04-26 08:33:57 51°13.669 2°55.899 113.6 3.2 294 -999
2012-04-26 08:34:02 51°13.671 2°55.892 114.2 3.5 295 -999
2012-04-26 08:34:07 51°13.673 2°55.884 115.5 3.7 294 -999
2012-04-26 08:34:11 51°13.675 2°55.878 116 3.7 295 -999
2012-04-26 08:34:17 51°13.677 2°55.869 116.2 3.6 294 -999
2012-04-26 08:34:22 51°13.68 2°55.862 116.4 3.6 294 -999
2012-04-26 08:34:27 51°13.682 2°55.855 116.5 3.6 296 -999
2012-04-26 08:34:31 51°13.683 2°55.849 116.6 3.6 296 -999
2012-04-26 08:34:36 51°13.686 2°55.842 116.6 3.6 297 -999
2012-04-26 08:34:42 51°13.689 2°55.833 116.4 3.8 296 -999
2012-04-26 08:34:46 51°13.691 2°55.827 115.8 3.9 297 -999
2012-04-26 08:34:51 51°13.693 2°55.819 114.9 3.9 296 -999
2012-04-26 08:34:57 51°13.696 2°55.81 113.9 3.7 293 -999
2012-04-26 08:35:02 51°13.698 2°55.803 112.9 3.6 293 -999
2012-04-26 08:35:07 51°13.7 2°55.796 111.3 3.5 294 -999
2012-04-26 08:35:11 51°13.702 2°55.791 110 3.4 292 -999
2012-04-26 08:35:17 51°13.704 2°55.782 108.5 3.5 295 -999
2012-04-26 08:35:22 51°13.706 2°55.775 107.2 3.5 294 -999
2012-04-26 08:35:27 51°13.708 2°55.768 105 3.5 295 -999
2012-04-26 08:35:31 51°13.709 2°55.762 102.9 3.4 291 -999
2012-04-26 08:35:36 51°13.71 2°55.755 101 3.3 288 -999
2012-04-26 08:35:42 51°13.712 2°55.747 98.6 3.3 286 -999
2012-04-26 08:35:47 51°13.713 2°55.74 95.6 3.1 284 -999
2012-04-26 08:35:51 51°13.713 2°55.736 93.7 2.9 282 -999
2012-04-26 08:35:56 51°13.714 2°55.729 91.3 2.8 279 -999
2012-04-26 08:36:01 51°13.715 2°55.724 89.2 2.5 279 -999
2012-04-26 08:36:07 51°13.715 2°55.718 86.2 2.1 280 -999
2012-04-26 08:36:11 51°13.716 2°55.715 83.4 1.6 279 -999
2012-04-26 08:36:16 51°13.716 2°55.713 80.7 1 288 -999
2012-04-26 08:36:22 51°13.717 2°55.712 76.8 0.6 308 -999
2012-04-26 08:36:26 51°13.717 2°55.712 72.1 0.5 338 -999
2012-04-26 08:36:31 51°13.718 2°55.711 65.9 0.6 3 -999
2012-04-26 08:36:36 51°13.719 2°55.712 62 0.7 14 -999
2012-04-26 08:36:41 51°13.721 2°55.712 56.8 1.1 14 -999
2012-04-26 08:36:46 51°13.723 2°55.713 50.6 1.5 31 -999
2012-04-26 08:36:51 51°13.725 2°55.715 43.9 1.8 20 -999
2012-04-26 08:36:56 51°13.728 2°55.716 37.4 1.6 20 -999
2012-04-26 08:37:02 51°13.73 2°55.717 31.3 1.4 13 -999
2012-04-26 08:37:07 51°13.731 2°55.717 26.4 1 9 -999
2012-04-26 08:37:11 51°13.732 2°55.717 22.9 0.7 5 -999
2012-04-26 08:37:16 51°13.732 2°55.717 18.8 0.2 287 -999
2012-04-26 08:37:22 51°13.731 2°55.716 16.1 0.6 212 -999
2012-04-26 08:37:26 51°13.73 2°55.715 12.7 1 203 -999
2012-04-26 08:37:31 51°13.729 2°55.714 10.3 1.3 199 -999
2012-04-26 08:37:36 51°13.726 2°55.713 8.5 1.6 196 -999
2012-04-26 08:37:42 51°13.723 2°55.712 6.1 2 190 -999
2012-04-26 08:37:47 51°13.72 2°55.711 2.9 2.2 186 -999
2012-04-26 08:37:51 51°13.718 2°55.711 0.6 2.2 186 -999
2012-04-26 08:37:56 51°13.715 2°55.711 358.1 1.7 183 -999
2012-04-26 08:38:01 51°13.714 2°55.711 356.6 0.8 188 -999
2012-04-26 08:38:07 51°13.714 2°55.71 354.7 0.2 272 -999
2012-04-26 08:38:11 51°13.715 2°55.71 350.7 0.6 335 -999
2012-04-26 08:38:16 51°13.716 2°55.709 347.7 1.6 337 -999
2012-04-26 08:38:22 51°13.72 2°55.706 344.1 2.2 339 -999
2012-04-26 08:38:27 51°13.724 2°55.704 341.2 3 336 -999
2012-04-26 08:38:31 51°13.728 2°55.701 339.3 3.8 337 -999
2012-04-26 08:38:36 51°13.734 2°55.697 338.7 4.6 335 -999
2012-04-26 08:38:41 51°13.74 2°55.692 337.8 5.3 335 -999
2012-04-26 08:38:47 51°13.749 2°55.686 337.9 5.8 335 -999
2012-04-26 08:38:51 51°13.756 2°55.681 338 6.4 335 -999
2012-04-26 08:38:56 51°13.765 2°55.675 338.1 6.9 336 -999
2012-04-26 08:39:02 51°13.776 2°55.666 338.4 7.4 335 9.5
2012-04-26 08:39:06 51°13.784 2°55.661 338.5 7.8 336 -999
2012-04-26 08:39:11 51°13.794 2°55.654 338.9 8.1 335 -999
2012-04-26 08:39:17 51°13.806 2°55.646 339.5 8.2 338 -999
2012-04-26 08:39:22 51°13.817 2°55.639 340.5 8.5 337 9.6
2012-04-26 08:39:27 51°13.828 2°55.632 340.3 8.7 337 -999
2012-04-26 08:39:31 51°13.837 2°55.626 339.8 8.9 337 -999
2012-04-26 08:39:36 51°13.848 2°55.618 339.5 9.1 337 -999
2012-04-26 08:39:42 51°13.863 2°55.609 339.6 9.1 337 -999
2012-04-26 08:39:47 51°13.874 2°55.601 339.4 9.2 337 -999
2012-04-26 08:39:51 51°13.884 2°55.594 339.2 9.4 337 -999
2012-04-26 08:39:56 51°13.896 2°55.586 339.4 9.5 337 -999
2012-04-26 08:40:02 51°13.91 2°55.576 339 9.5 336 -999
2012-04-26 08:40:07 51°13.923 2°55.568 338.4 9.6 336 -999
2012-04-26 08:40:11 51°13.932 2°55.561 338.2 9.6 336 -999
2012-04-26 08:40:16 51°13.944 2°55.552 337.7 9.5 336 -999
2012-04-26 08:40:22 51°13.958 2°55.542 337.9 9.5 336 -999
2012-04-26 08:40:27 51°13.97 2°55.533 337.8 9.6 335 -999
2012-04-26 08:40:31 51°13.98 2°55.527 337.6 9.6 336 -999
2012-04-26 08:40:36 51°13.992 2°55.518 337.6 9.6 335 -999
2012-04-26 08:40:41 51°14.004 2°55.509 337.4 9.6 336 -999
2012-04-26 08:40:47 51°14.019 2°55.499 337.6 9.8 336 -999
2012-04-26 08:40:51 51°14.028 2°55.492 337.3 9.6 335 -999
2012-04-26 08:40:56 51°14.04 2°55.483 337.2 9.6 335 -999
2012-04-26 08:41:01 51°14.052 2°55.474 337.3 9.7 335 -999
2012-04-26 08:41:06 51°14.064 2°55.464 336.9 9.8 334 -999
2012-04-26 08:41:11 51°14.077 2°55.454 336.7 9.8 334 -999
2012-04-26 08:41:16 51°14.089 2°55.445 336.6 9.8 334 -999
2012-04-26 08:41:21 51°14.101 2°55.435 336.5 9.8 333 -999
2012-04-26 08:41:26 51°14.114 2°55.425 336.3 10 333 -999
2012-04-26 08:41:31 51°14.126 2°55.415 335.7 10 333 -999
2012-04-26 08:41:36 51°14.138 2°55.405 335.1 10 332 -999
2012-04-26 08:41:42 51°14.153 2°55.392 334.6 10.1 332 -999
2012-04-26 08:41:46 51°14.163 2°55.384 334.5 10.2 332 -999
2012-04-26 08:41:51 51°14.176 2°55.373 334.1 10.2 331 -999
2012-04-26 08:41:56 51°14.188 2°55.362 334.2 10.3 332 -999
2012-04-26 08:42:02 51°14.204 2°55.349 334.5 10.4 332 -999
2012-04-26 08:42:07 51°14.216 2°55.338 334.4 10.6 331 -999
2012-04-26 08:42:12 51°14.229 2°55.327 333.8 10.6 331 -999
2012-04-26 08:42:16 51°14.24 2°55.318 334 10.6 332 -999
2012-04-26 08:42:22 51°14.255 2°55.304 333.4 10.6 330 -999
2012-04-26 08:42:27 51°14.267 2°55.292 332 10.6 329 -999
2012-04-26 08:42:32 51°14.28 2°55.28 331.9 10.7 331 -999
2012-04-26 08:42:36 51°14.29 2°55.27 331.8 10.7 329 -999
2012-04-26 08:42:42 51°14.306 2°55.256 331.5 10.9 330 -999
2012-04-26 08:42:47 51°14.319 2°55.243 331.7 11 328 -999
2012-04-26 08:42:52 51°14.333 2°55.231 331.7 11.2 330 -999
2012-04-26 08:42:56 51°14.343 2°55.22 331.9 11.3 329 -999
2012-04-26 08:43:01 51°14.357 2°55.208 332.4 11.4 330 -999
2012-04-26 08:43:07 51°14.373 2°55.192 332.1 11.4 329 -999
2012-04-26 08:43:12 51°14.387 2°55.18 332.7 11.4 331 -999
2012-04-26 08:43:16 51°14.398 2°55.17 333.2 11.5 330 -999
2012-04-26 08:43:21 51°14.412 2°55.157 332.8 11.5 330 -999
2012-04-26 08:43:27 51°14.429 2°55.143 333.1 11.5 331 -999
2012-04-26 08:43:32 51°14.443 2°55.13 333.8 11.6 331 -999
2012-04-26 08:43:36 51°14.454 2°55.12 332.9 11.5 330 -999
2012-04-26 08:43:41 51°14.468 2°55.107 332.5 11.6 331 9.3
2012-04-26 08:43:47 51°14.485 2°55.092 332.5 11.7 331 -999
2012-04-26 08:43:52 51°14.499 2°55.08 333 11.6 331 -999
2012-04-26 08:43:56 51°14.51 2°55.069 332.8 11.5 329 9.3
2012-04-26 08:44:01 51°14.523 2°55.055 331.6 11.7 326 9.6
2012-04-26 08:44:06 51°14.537 2°55.04 329.5 11.7 326 9.7
2012-04-26 08:44:11 51°14.55 2°55.025 328.2 11.8 324 10.5
2012-04-26 08:44:16 51°14.563 2°55.009 327.5 11.9 323 10.7
2012-04-26 08:44:20 51°14.573 2°54.996 326.6 12 321 10.8
2012-04-26 08:44:25 51°14.586 2°54.98 326 11.9 322 11
2012-04-26 08:44:30 51°14.599 2°54.963 325.7 11.9 320 11
2012-04-26 08:44:35 51°14.611 2°54.946 325.6 11.9 321 10.8
2012-04-26 08:44:40 51°14.624 2°54.928 325.4 12 318 10.9
2012-04-26 08:44:44 51°14.633 2°54.914 324.3 12 317 10.9
2012-04-26 08:44:49 51°14.645 2°54.895 323.1 12.1 313 10.8
2012-04-26 08:44:54 51°14.656 2°54.875 321 12 310 10.8
2012-04-26 08:44:59 51°14.666 2°54.854 317.5 12.1 307 10.5
2012-04-26 08:45:04 51°14.675 2°54.831 314 12.1 304 10.6
2012-04-26 08:45:09 51°14.684 2°54.808 310.2 12.2 300 10.5
2012-04-26 08:45:14 51°14.691 2°54.784 306.2 12.2 297 10.4
2012-04-26 08:45:19 51°14.698 2°54.759 302.2 12.1 293 10.5
2012-04-26 08:45:24 51°14.703 2°54.734 297.1 12.2 289 10.2
2012-04-26 08:45:28 51°14.706 2°54.713 292 12.2 284 10.3
2012-04-26 08:45:33 51°14.708 2°54.686 287.4 12.1 278 10.1
2012-04-26 08:45:38 51°14.709 2°54.66 281.2 12 272 10.1
2012-04-26 08:45:43 51°14.708 2°54.633 275.3 12 267 10
2012-04-26 08:45:48 51°14.705 2°54.607 268.2 12 262 9.9
2012-04-26 08:45:52 51°14.703 2°54.586 262.8 12.1 257 9.8
2012-04-26 08:45:58 51°14.697 2°54.555 258.9 12 253 9.4
2012-04-26 08:46:03 51°14.69 2°54.531 254.2 12 247 9.5
2012-04-26 08:46:08 51°14.683 2°54.507 248.6 12 244 9.7
2012-04-26 08:46:13 51°14.675 2°54.483 245 12.1 240 9.8
2012-04-26 08:46:18 51°14.665 2°54.461 240.4 12.3 237 9.8
2012-04-26 08:46:23 51°14.655 2°54.439 237.2 12.4 235 9.4
2012-04-26 08:46:28 51°14.645 2°54.417 234.5 12.4 233 9.8
2012-04-26 08:46:32 51°14.637 2°54.399 233.1 12.4 233 9.4
2012-04-26 08:46:38 51°14.624 2°54.373 231.6 12.5 232 9.6
2012-04-26 08:46:43 51°14.613 2°54.351 230.8 12.5 231 9.4
2012-04-26 08:46:48 51°14.602 2°54.33 229.9 12.4 231 9
2012-04-26 08:46:53 51°14.591 2°54.309 229.7 12.5 231 9.4
2012-04-26 08:46:58 51°14.58 2°54.287 229.4 12.5 231 9.3
2012-04-26 08:47:03 51°14.568 2°54.266 229.8 12.5 231 9.3
2012-04-26 08:47:08 51°14.557 2°54.244 229.7 12.6 231 9.4
2012-04-26 08:47:13 51°14.546 2°54.223 229.6 12.5 231 9.1
2012-04-26 08:47:18 51°14.535 2°54.201 229.4 12.5 231 8.9
2012-04-26 08:47:23 51°14.524 2°54.18 229.2 12.5 231 8.9
2012-04-26 08:47:28 51°14.513 2°54.158 229.4 12.6 231 9
2012-04-26 08:47:33 51°14.502 2°54.137 229.6 12.6 230 9.2
2012-04-26 08:47:38 51°14.491 2°54.116 229.7 12.5 231 9.1
2012-04-26 08:47:43 51°14.48 2°54.094 230 12.5 230 9
2012-04-26 08:47:48 51°14.469 2°54.073 228.8 12.5 229 9.1
2012-04-26 08:47:52 51°14.459 2°54.057 227.8 12.6 228 9.2
2012-04-26 08:47:58 51°14.445 2°54.032 227.3 12.5 228 8.9
2012-04-26 08:48:03 51°14.433 2°54.012 226.7 12.5 227 8.9
2012-04-26 08:48:08 51°14.421 2°53.992 225.6 12.4 226 8.9
2012-04-26 08:48:13 51°14.409 2°53.973 224.4 12.5 225 9.1
2012-04-26 08:48:18 51°14.397 2°53.953 224.4 12.5 226 8.9
2012-04-26 08:48:23 51°14.384 2°53.934 224.4 12.4 225 9
2012-04-26 08:48:28 51°14.373 2°53.914 224.3 12.4 226 9
2012-04-26 08:48:33 51°14.361 2°53.894 224.9 12.5 227 9.2
2012-04-26 08:48:38 51°14.349 2°53.874 225.7 12.5 227 8.9
2012-04-26 08:48:43 51°14.337 2°53.853 226.6 12.5 228 8.8
2012-04-26 08:48:48 51°14.326 2°53.832 227.5 12.5 229 8.8
2012-04-26 08:48:53 51°14.314 2°53.812 227.7 12.4 227 8.7
2012-04-26 08:48:58 51°14.302 2°53.793 226.2 12.5 226 8.8
2012-04-26 08:49:03 51°14.29 2°53.773 225.2 12.5 226 8.7
2012-04-26 08:49:08 51°14.278 2°53.753 225 12.4 226 8.7
2012-04-26 08:49:12 51°14.268 2°53.737 225.1 12.4 226 8.7
2012-04-26 08:49:18 51°14.254 2°53.714 225 12.4 227 8.6
2012-04-26 08:49:23 51°14.242 2°53.694 224.7 12.4 226 8.8
2012-04-26 08:49:28 51°14.231 2°53.673 225.9 12.5 229 8.6
2012-04-26 08:49:33 51°14.22 2°53.652 227.5 12.4 228 8.7
2012-04-26 08:49:38 51°14.208 2°53.631 227.8 12.5 229 8.7
2012-04-26 08:49:43 51°14.198 2°53.61 229.3 12.5 230 8.6
2012-04-26 08:49:48 51°14.186 2°53.588 230 12.6 231 8.7
2012-04-26 08:49:52 51°14.178 2°53.571 230 12.5 231 8.5
2012-04-26 08:49:58 51°14.165 2°53.545 231 12.6 232 8.6
2012-04-26 08:50:03 51°14.154 2°53.523 230.9 12.7 232 8.6
2012-04-26 08:50:08 51°14.143 2°53.501 231.6 12.7 232 8.7
2012-04-26 08:50:12 51°14.134 2°53.484 232 12.7 231 8.8
2012-04-26 08:50:18 51°14.121 2°53.457 232.2 12.7 233 8.7
2012-04-26 08:50:23 51°14.11 2°53.435 232.7 12.7 233 8.5
2012-04-26 08:50:28 51°14.1 2°53.412 232.7 12.7 233 8.7
2012-04-26 08:50:33 51°14.09 2°53.39 233.3 12.7 233 8.6
2012-04-26 08:50:38 51°14.079 2°53.367 233.6 12.7 234 8.7
2012-04-26 08:50:43 51°14.069 2°53.344 234.1 12.7 235 8.5
2012-04-26 08:50:48 51°14.059 2°53.321 234.7 12.7 235 8.6
2012-04-26 08:50:53 51°14.049 2°53.298 235.5 12.7 236 8.5
2012-04-26 08:50:58 51°14.04 2°53.275 236.4 12.6 237 8.6
2012-04-26 08:51:03 51°14.03 2°53.251 236.8 12.7 236 8.8
2012-04-26 08:51:08 51°14.021 2°53.227 237.4 12.7 238 8.8
2012-04-26 08:51:13 51°14.011 2°53.204 237.5 12.7 236 8.8
2012-04-26 08:51:18 51°14.002 2°53.181 236.9 12.8 237 8.8
2012-04-26 08:51:23 51°13.992 2°53.157 237.8 12.7 238 8.8
2012-04-26 08:51:28 51°13.983 2°53.133 238.7 12.7 239 8.7
2012-04-26 08:51:33 51°13.974 2°53.108 239.2 12.8 239 8.7
2012-04-26 08:51:38 51°13.966 2°53.083 240.2 12.8 240 8.9
2012-04-26 08:51:43 51°13.957 2°53.059 240.8 12.7 240 8.8
2012-04-26 08:51:48 51°13.948 2°53.034 240.4 12.8 241 8.8
2012-04-26 08:51:52 51°13.941 2°53.015 241.1 12.8 240 8.8
2012-04-26 08:51:58 51°13.93 2°52.986 240.2 12.8 239 8.9
2012-04-26 08:52:03 51°13.921 2°52.961 240.2 12.7 240 9
2012-04-26 08:52:08 51°13.913 2°52.937 240.7 12.8 241 8.9
2012-04-26 08:52:13 51°13.904 2°52.912 240.6 12.8 240 8.8
2012-04-26 08:52:18 51°13.895 2°52.887 240.8 12.8 240 8.9
2012-04-26 08:52:23 51°13.886 2°52.863 240.7 12.8 240 8.9
2012-04-26 08:52:28 51°13.877 2°52.839 240.3 12.7 240 8.9
2012-04-26 08:52:33 51°13.868 2°52.815 240 12.7 239 8.8
2012-04-26 08:52:38 51°13.859 2°52.79 239.5 12.8 239 9.2
2012-04-26 08:52:43 51°13.85 2°52.766 239.5 12.8 239 9.1
2012-04-26 08:52:48 51°13.841 2°52.742 239.5 12.7 239 9
2012-04-26 08:52:53 51°13.831 2°52.718 238.9 12.8 238 9.1
2012-04-26 08:52:58 51°13.822 2°52.694 238.3 12.8 238 9.1
2012-04-26 08:53:03 51°13.813 2°52.67 238.7 12.8 238 9
2012-04-26 08:53:08 51°13.803 2°52.646 238.3 12.7 238 9.1
2012-04-26 08:53:13 51°13.794 2°52.622 238.2 12.8 239 9.3
2012-04-26 08:53:18 51°13.785 2°52.598 238.9 12.8 239 9
2012-04-26 08:53:23 51°13.775 2°52.574 238.5 12.8 237 9.1
2012-04-26 08:53:28 51°13.766 2°52.55 238 12.8 237 9.3
2012-04-26 08:53:32 51°13.758 2°52.532 237.4 12.8 236 9.5
2012-04-26 08:53:38 51°13.746 2°52.503 237.3 12.8 236 9.1
2012-04-26 08:53:43 51°13.736 2°52.48 236.7 12.8 236 9.1
2012-04-26 08:53:48 51°13.726 2°52.457 236.4 12.7 236 9.3
2012-04-26 08:53:52 51°13.718 2°52.439 236 12.7 236 9.3
2012-04-26 08:53:58 51°13.706 2°52.411 235.7 12.7 236 9.2
2012-04-26 08:54:03 51°13.696 2°52.387 236 12.7 237 9.2
2012-04-26 08:54:08 51°13.687 2°52.363 236.9 12.7 237 9.2
2012-04-26 08:54:13 51°13.677 2°52.34 237.6 12.8 237 9.3
2012-04-26 08:54:18 51°13.668 2°52.316 237.6 12.8 238 9.3
2012-04-26 08:54:23 51°13.658 2°52.292 237.8 12.8 238 9.2
2012-04-26 08:54:28 51°13.649 2°52.268 238.2 12.8 238 9.3
2012-04-26 08:54:33 51°13.64 2°52.244 238.4 12.8 238 9.2
2012-04-26 08:54:38 51°13.63 2°52.22 238.2 12.8 238 9.4
2012-04-26 08:54:43 51°13.62 2°52.196 238.3 12.8 237 9.3
2012-04-26 08:54:48 51°13.611 2°52.172 238 12.7 238 9.3
2012-04-26 08:54:52 51°13.604 2°52.153 237.4 12.7 238 9.4
2012-04-26 08:54:58 51°13.592 2°52.124 237.7 12.8 238 9.4
2012-04-26 08:55:03 51°13.583 2°52.101 238 12.8 237 9.7
2012-04-26 08:55:08 51°13.573 2°52.077 238.1 12.8 238 9.3
2012-04-26 08:55:12 51°13.565 2°52.059 236.7 12.7 235 9.5
2012-04-26 08:55:18 51°13.554 2°52.031 236 12.7 236 9.5
2012-04-26 08:55:23 51°13.544 2°52.007 236.7 12.7 237 9.4
2012-04-26 08:55:28 51°13.535 2°51.983 237.2 12.7 238 9.6
2012-04-26 08:55:33 51°13.526 2°51.959 238.1 12.7 238 9.4
2012-04-26 08:55:38 51°13.516 2°51.936 238.5 12.6 237 9.4
2012-04-26 08:55:43 51°13.507 2°51.912 238 12.6 237 9.4
2012-04-26 08:55:48 51°13.497 2°51.889 236.7 12.7 236 9.5
2012-04-26 08:55:52 51°13.489 2°51.87 236.4 12.7 236 9.6
2012-04-26 08:55:58 51°13.478 2°51.842 236.1 12.7 236 9.6
2012-04-26 08:56:03 51°13.468 2°51.819 236.4 12.6 237 9.5
2012-04-26 08:56:08 51°13.459 2°51.796 236.7 12.6 237 9.4
2012-04-26 08:56:12 51°13.451 2°51.777 236.4 12.6 237 9.4
2012-04-26 08:56:18 51°13.439 2°51.749 236.3 12.6 236 9.5
2012-04-26 08:56:23 51°13.43 2°51.726 236.4 12.7 237 9.7
2012-04-26 08:56:28 51°13.42 2°51.702 236.2 12.6 237 9.6
2012-04-26 08:56:33 51°13.411 2°51.679 236.6 12.6 237 9.5
2012-04-26 08:56:38 51°13.401 2°51.655 237.1 12.6 237 9.6
2012-04-26 08:56:43 51°13.392 2°51.632 237.2 12.6 238 9.6
2012-04-26 08:56:48 51°13.383 2°51.608 237.7 12.7 238 9.8
2012-04-26 08:56:53 51°13.373 2°51.584 237.8 12.7 238 9.7
2012-04-26 08:56:58 51°13.364 2°51.561 237.8 12.6 237 9.7
2012-04-26 08:57:03 51°13.354 2°51.537 237.4 12.6 237 9.8
2012-04-26 08:57:08 51°13.345 2°51.513 237.5 12.6 237 9.5
2012-04-26 08:57:12 51°13.338 2°51.495 237.4 12.6 238 9.9
2012-04-26 08:57:18 51°13.327 2°51.466 238.3 12.7 239 9.7
2012-04-26 08:57:23 51°13.318 2°51.441 239.6 12.6 242 9.5
2012-04-26 08:57:28 51°13.31 2°51.417 241.9 12.5 243 9.4
2012-04-26 08:57:33 51°13.302 2°51.392 242.7 12.6 243 9.8
2012-04-26 08:57:38 51°13.295 2°51.367 244.3 12.5 244 9.6
2012-04-26 08:57:43 51°13.287 2°51.342 244.7 12.6 244 9.6
2012-04-26 08:57:48 51°13.28 2°51.317 244.9 12.6 245 9.8
2012-04-26 08:57:53 51°13.273 2°51.291 245.9 12.6 245 9.7
2012-04-26 08:57:58 51°13.265 2°51.266 246 12.6 245 9.7
2012-04-26 08:58:03 51°13.258 2°51.241 245.9 12.7 245 9.7
2012-04-26 08:58:08 51°13.251 2°51.215 246.1 12.7 246 9.6
2012-04-26 08:58:12 51°13.245 2°51.195 246.3 12.7 245 9.6
2012-04-26 08:58:18 51°13.236 2°51.164 246 12.7 245 9.9
2012-04-26 08:58:23 51°13.228 2°51.139 245.2 12.7 244 10
2012-04-26 08:58:28 51°13.22 2°51.114 244.8 12.8 244 9.9
2012-04-26 08:58:32 51°13.215 2°51.093 245.3 12.8 244 9.8
2012-04-26 08:58:38 51°13.206 2°51.063 245.3 12.7 245 9.6
2012-04-26 08:58:43 51°13.198 2°51.038 244.7 12.7 244 9.9
2012-04-26 08:58:48 51°13.19 2°51.012 244.7 12.7 244 9.8
2012-04-26 08:58:53 51°13.182 2°50.987 244.5 12.8 244 10
2012-04-26 08:58:58 51°13.174 2°50.961 244.7 12.8 244 10
2012-04-26 08:59:03 51°13.167 2°50.936 244.6 12.8 244 10
2012-04-26 08:59:08 51°13.159 2°50.911 244.2 12.8 243 9.8
2012-04-26 08:59:12 51°13.152 2°50.891 244 12.7 243 9.8
2012-04-26 08:59:18 51°13.142 2°50.861 243.1 12.7 242 9.9
2012-04-26 08:59:23 51°13.133 2°50.837 241.3 12.7 239 10
2012-04-26 08:59:28 51°13.124 2°50.813 239.6 12.7 238 10
2012-04-26 08:59:32 51°13.116 2°50.794 238.9 12.7 239 9.9
2012-04-26 08:59:38 51°13.105 2°50.765 238.6 12.8 238 10.1
2012-04-26 08:59:43 51°13.096 2°50.741 238.2 12.8 238 9.8
2012-04-26 08:59:48 51°13.087 2°50.717 238.4 12.8 239 9.9
2012-04-26 08:59:53 51°13.078 2°50.692 239.1 12.8 239 9.8
2012-04-26 08:59:58 51°13.069 2°50.668 239.3 12.8 240 9.9
2012-04-26 09:00:03 51°13.06 2°50.644 239.6 12.8 240 10
2012-04-26 09:00:08 51°13.052 2°50.619 240 12.8 240 10
2012-04-26 09:00:13 51°13.043 2°50.594 240.6 12.8 241 10
2012-04-26 09:00:18 51°13.034 2°50.57 241.1 12.8 241 9.9
2012-04-26 09:00:23 51°13.026 2°50.545 241.9 12.8 242 10.1
2012-04-26 09:00:28 51°13.018 2°50.52 242.9 12.7 242 10
2012-04-26 09:00:33 51°13.01 2°50.495 242.9 12.8 242 10
2012-04-26 09:00:38 51°13.001 2°50.47 242.7 12.7 242 10.1
2012-04-26 09:00:43 51°12.993 2°50.446 242.3 12.6 241 10.1
2012-04-26 09:00:48 51°12.984 2°50.422 240.3 12.6 239 10
2012-04-26 09:00:53 51°12.974 2°50.399 238.9 12.7 239 10
2012-04-26 09:00:58 51°12.965 2°50.375 238.5 12.6 238 10.1
2012-04-26 09:01:03 51°12.955 2°50.352 237 12.6 236 10.3
2012-04-26 09:01:08 51°12.946 2°50.329 236.6 12.6 237 10.1
2012-04-26 09:01:13 51°12.936 2°50.306 236 12.6 236 10.1
2012-04-26 09:01:18 51°12.926 2°50.284 235.3 12.5 235 10.2
2012-04-26 09:01:23 51°12.916 2°50.261 234.9 12.5 236 10.2
2012-04-26 09:01:28 51°12.906 2°50.238 235.5 12.6 236 10.2
2012-04-26 09:01:32 51°12.898 2°50.22 235.4 12.6 235 10.1
2012-04-26 09:01:38 51°12.887 2°50.192 235.3 12.5 236 10.1
2012-04-26 09:01:43 51°12.877 2°50.17 235.2 12.5 236 10.1
2012-04-26 09:01:48 51°12.867 2°50.147 235.2 12.6 237 10.1
2012-04-26 09:01:53 51°12.857 2°50.124 236.2 12.5 235 10.2
2012-04-26 09:01:58 51°12.848 2°50.101 236.4 12.5 236 10.2
2012-04-26 09:02:03 51°12.838 2°50.078 236.1 12.6 236 10.1
2012-04-26 09:02:08 51°12.829 2°50.054 236.3 12.5 237 10.1
2012-04-26 09:02:13 51°12.82 2°50.03 238.2 12.5 240 10.1
2012-04-26 09:02:18 51°12.812 2°50.006 240.7 12.5 242 10.2
2012-04-26 09:02:23 51°12.804 2°49.981 242.5 12.6 244 10.2
2012-04-26 09:02:28 51°12.797 2°49.956 244.9 12.6 246 10.1
2012-04-26 09:02:33 51°12.791 2°49.929 247.6 12.7 249 10.2
2012-04-26 09:02:38 51°12.785 2°49.904 249 12.7 249 10.1
2012-04-26 09:02:43 51°12.779 2°49.877 250.6 12.7 252 10
2012-04-26 09:02:48 51°12.773 2°49.85 252.3 12.8 251 10.3
2012-04-26 09:02:52 51°12.769 2°49.829 252.6 12.9 252 10.4
2012-04-26 09:02:58 51°12.763 2°49.796 254.1 12.8 254 10.3
2012-04-26 09:03:03 51°12.758 2°49.769 254.8 12.9 254 10.2
2012-04-26 09:03:08 51°12.753 2°49.742 255.4 12.8 255 10.3
2012-04-26 09:03:13 51°12.748 2°49.715 255.3 12.9 251 10.3
2012-04-26 09:03:18 51°12.743 2°49.688 254.1 12.8 253 10.2
2012-04-26 09:03:23 51°12.737 2°49.661 254 12.8 251 10.3
2012-04-26 09:03:28 51°12.731 2°49.634 253.3 12.9 251 10.6
2012-04-26 09:03:32 51°12.727 2°49.612 253.1 12.9 252 10.4
2012-04-26 09:03:38 51°12.72 2°49.579 253.1 13 252 10.6
2012-04-26 09:03:43 51°12.714 2°49.552 252.7 13 251 10.7
2012-04-26 09:03:48 51°12.708 2°49.525 252.1 13 250 10.7
2012-04-26 09:03:52 51°12.703 2°49.504 252.2 13 251 10.6
2012-04-26 09:03:58 51°12.696 2°49.472 252.2 12.9 250 10.7
2012-04-26 09:04:03 51°12.69 2°49.445 251.2 12.9 248 10.8
2012-04-26 09:04:08 51°12.682 2°49.419 249.3 12.9 247 10.8
2012-04-26 09:04:12 51°12.676 2°49.398 247.6 12.9 245 10.8
2012-04-26 09:04:18 51°12.667 2°49.367 246.5 12.9 245 10.8
2012-04-26 09:04:23 51°12.66 2°49.342 245.9 12.9 244 10.7
2012-04-26 09:04:28 51°12.652 2°49.316 244.9 13 243 10.9
2012-04-26 09:04:32 51°12.645 2°49.296 244.2 13 243 11
2012-04-26 09:04:38 51°12.635 2°49.266 243.8 12.9 242 10.7
2012-04-26 09:04:42 51°12.628 2°49.246 243.4 12.8 242 10.7
2012-04-26 09:04:48 51°12.619 2°49.215 243.3 12.8 243 10.8
2012-04-26 09:04:52 51°12.613 2°49.194 244.1 12.9 245 10.9
2012-04-26 09:04:58 51°12.604 2°49.163 245.8 13 246 11
2012-04-26 09:05:03 51°12.597 2°49.137 247.4 12.9 248 11.1
2012-04-26 09:05:08 51°12.591 2°49.11 248.9 12.9 248 10.9
2012-04-26 09:05:12 51°12.586 2°49.089 249.4 12.9 249 11
2012-04-26 09:05:17 51°12.58 2°49.062 250.5 12.9 250 11.1
2012-04-26 09:05:23 51°12.572 2°49.03 251.1 12.9 250 10.7
2012-04-26 09:05:28 51°12.566 2°49.003 251.2 12.9 250 11.2
2012-04-26 09:05:32 51°12.561 2°48.981 251.6 13 250 10.9
2012-04-26 09:05:36 51°12.556 2°48.96 250.6 12.9 248 11
2012-04-26 09:05:43 51°12.546 2°48.924 249 12.9 246 11
2012-04-26 09:05:48 51°12.539 2°48.898 248.1 12.8 246 11
2012-04-26 09:05:52 51°12.533 2°48.877 247.1 12.8 246 11
2012-04-26 09:05:58 51°12.524 2°48.846 246.1 12.8 245 11
2012-04-26 09:06:04 51°12.515 2°48.816 245 12.9 244 10.9
2012-04-26 09:06:09 51°12.507 2°48.79 244.7 12.9 244 11.1
2012-04-26 09:06:13 51°12.501 2°48.77 245.4 12.8 245 11.1
2012-04-26 09:06:18 51°12.494 2°48.743 246.4 12.8 246 11.2
2012-04-26 09:06:23 51°12.487 2°48.717 247.6 12.9 247 11.2
2012-04-26 09:06:28 51°12.481 2°48.69 248.7 12.9 248 11.1
2012-04-26 09:06:33 51°12.474 2°48.664 249.2 12.9 249 11.1
2012-04-26 09:06:38 51°12.468 2°48.637 249.8 12.8 249 11.1
2012-04-26 09:06:43 51°12.461 2°48.611 250.5 12.8 249 11.3
2012-04-26 09:06:48 51°12.455 2°48.584 250.4 12.9 249 11.1
2012-04-26 09:06:53 51°12.449 2°48.558 251 12.9 250 11.2
2012-04-26 09:06:58 51°12.443 2°48.531 251.3 12.9 250 11.2
2012-04-26 09:07:03 51°12.437 2°48.504 251.4 12.8 250 11.1
2012-04-26 09:07:08 51°12.43 2°48.478 250.5 12.7 248 11.3
2012-04-26 09:07:13 51°12.423 2°48.452 248.4 12.8 247 11.2
2012-04-26 09:07:18 51°12.416 2°48.427 247.6 12.8 246 11.2
2012-04-26 09:07:23 51°12.408 2°48.401 246.8 12.8 245 11.2
2012-04-26 09:07:28 51°12.4 2°48.376 245.7 12.7 244 11.4
2012-04-26 09:07:33 51°12.392 2°48.351 245 12.7 243 11.3
2012-04-26 09:07:38 51°12.384 2°48.325 244.3 12.8 243 11.5
2012-04-26 09:07:43 51°12.376 2°48.3 243.8 12.8 242 11.3
2012-04-26 09:07:48 51°12.368 2°48.276 242.8 12.8 241 11.3
2012-04-26 09:07:53 51°12.359 2°48.251 241.8 12.7 240 11.3
2012-04-26 09:07:58 51°12.35 2°48.227 241 12.7 241 11.3
2012-04-26 09:08:03 51°12.341 2°48.202 240.6 12.7 240 11.5